sensor_id;sensor_type;location;lat;lon;timestamp;temperature;humidity
67131;HTU21D;54051;53.464;49.532;2023-05-15T00:01:21;9.91;83.58
67131;HTU21D;54051;53.464;49.532;2023-05-15T00:03:48;9.93;83.16
67131;HTU21D;54051;53.464;49.532;2023-05-15T00:06:14;9.92;83.12
67131;HTU21D;54051;53.464;49.532;2023-05-15T00:08:40;9.85;83.55
67131;HTU21D;54051;53.464;49.532;2023-05-15T00:11:07;9.81;83.87
67131;HTU21D;54051;53.464;49.532;2023-05-15T00:13:33;9.75;84.03
67131;HTU21D;54051;53.464;49.532;2023-05-15T00:15:59;9.68;84.34
67131;HTU21D;54051;53.464;49.532;2023-05-15T00:18:25;9.65;84.65
67131;HTU21D;54051;53.464;49.532;2023-05-15T00:20:51;9.66;85.16
67131;HTU21D;54051;53.464;49.532;2023-05-15T00:23:18;9.53;85.26
67131;HTU21D;54051;53.464;49.532;2023-05-15T00:25:44;9.53;85.31
67131;HTU21D;54051;53.464;49.532;2023-05-15T00:28:10;9.54;85.63
67131;HTU21D;54051;53.464;49.532;2023-05-15T00:30:36;9.59;85.47
67131;HTU21D;54051;53.464;49.532;2023-05-15T00:33:02;9.61;85.21
67131;HTU21D;54051;53.464;49.532;2023-05-15T00:35:28;9.66;85.37
67131;HTU21D;54051;53.464;49.532;2023-05-15T00:37:54;9.68;85.16
67131;HTU21D;54051;53.464;49.532;2023-05-15T00:40:20;9.67;84.90
67131;HTU21D;54051;53.464;49.532;2023-05-15T00:42:48;9.69;84.90
67131;HTU21D;54051;53.464;49.532;2023-05-15T00:45:15;9.70;84.71
67131;HTU21D;54051;53.464;49.532;2023-05-15T00:47:41;9.59;83.97
67131;HTU21D;54051;53.464;49.532;2023-05-15T00:50:08;9.41;83.18
67131;HTU21D;54051;53.464;49.532;2023-05-15T00:52:37;9.23;83.78
67131;HTU21D;54051;53.464;49.532;2023-05-15T00:55:03;9.12;84.29
67131;HTU21D;54051;53.464;49.532;2023-05-15T00:57:31;9.11;84.90
67131;HTU21D;54051;53.464;49.532;2023-05-15T00:59:58;9.18;84.47
67131;HTU21D;54051;53.464;49.532;2023-05-15T01:02:25;9.21;84.17
67131;HTU21D;54051;53.464;49.532;2023-05-15T01:04:51;9.32;83.81
67131;HTU21D;54051;53.464;49.532;2023-05-15T01:07:17;9.37;83.17
67131;HTU21D;54051;53.464;49.532;2023-05-15T01:09:44;9.46;82.52
67131;HTU21D;54051;53.464;49.532;2023-05-15T01:12:13;9.40;82.95
67131;HTU21D;54051;53.464;49.532;2023-05-15T01:14:40;9.41;83.20
67131;HTU21D;54051;53.464;49.532;2023-05-15T01:17:06;9.50;83.19
67131;HTU21D;54051;53.464;49.532;2023-05-15T01:19:33;9.64;82.43
67131;HTU21D;54051;53.464;49.532;2023-05-15T01:24:49;9.78;81.19
67131;HTU21D;54051;53.464;49.532;2023-05-15T01:37:33;9.85;82.36
67131;HTU21D;54051;53.464;49.532;2023-05-15T01:40:02;9.93;82.31
67131;HTU21D;54051;53.464;49.532;2023-05-15T01:42:30;10.01;82.39
67131;HTU21D;54051;53.464;49.532;2023-05-15T01:44:58;10.10;82.26
67131;HTU21D;54051;53.464;49.532;2023-05-15T01:47:29;10.24;82.21
67131;HTU21D;54051;53.464;49.532;2023-05-15T01:49:56;10.36;81.33
67131;HTU21D;54051;53.464;49.532;2023-05-15T01:52:34;10.50;80.87
67131;HTU21D;54051;53.464;49.532;2023-05-15T01:55:01;10.66;80.27
67131;HTU21D;54051;53.464;49.532;2023-05-15T01:57:29;10.71;79.98
67131;HTU21D;54051;53.464;49.532;2023-05-15T01:59:58;10.86;79.53
67131;HTU21D;54051;53.464;49.532;2023-05-15T02:02:26;11.03;79.32
67131;HTU21D;54051;53.464;49.532;2023-05-15T02:04:53;11.19;78.87
67131;HTU21D;54051;53.464;49.532;2023-05-15T02:07:19;11.32;78.53
67131;HTU21D;54051;53.464;49.532;2023-05-15T02:09:46;11.47;78.03
67131;HTU21D;54051;53.464;49.532;2023-05-15T02:12:12;12.01;76.20
67131;HTU21D;54051;53.464;49.532;2023-05-15T02:14:40;12.71;73.66
67131;HTU21D;54051;53.464;49.532;2023-05-15T02:17:09;15.00;64.68
67131;HTU21D;54051;53.464;49.532;2023-05-15T02:19:35;17.44;55.50
67131;HTU21D;54051;53.464;49.532;2023-05-15T02:22:02;19.41;49.36
67131;HTU21D;54051;53.464;49.532;2023-05-15T02:24:34;21.22;44.06
67131;HTU21D;54051;53.464;49.532;2023-05-15T02:27:19;21.98;42.04
67131;HTU21D;54051;53.464;49.532;2023-05-15T02:32:28;20.36;45.51
67131;HTU21D;54051;53.464;49.532;2023-05-15T02:35:13;19.44;48.89
67131;HTU21D;54051;53.464;49.532;2023-05-15T02:37:44;19.55;48.06
67131;HTU21D;54051;53.464;49.532;2023-05-15T02:40:14;20.41;45.54
67131;HTU21D;54051;53.464;49.532;2023-05-15T02:42:42;21.20;43.45
67131;HTU21D;54051;53.464;49.532;2023-05-15T02:45:11;22.14;40.93
67131;HTU21D;54051;53.464;49.532;2023-05-15T02:47:41;22.92;38.85
67131;HTU21D;54051;53.464;49.532;2023-05-15T02:50:07;22.85;38.77
67131;HTU21D;54051;53.464;49.532;2023-05-15T02:52:36;23.56;37.66
67131;HTU21D;54051;53.464;49.532;2023-05-15T02:55:02;24.77;34.78
67131;HTU21D;54051;53.464;49.532;2023-05-15T02:57:29;25.23;33.90
67131;HTU21D;54051;53.464;49.532;2023-05-15T02:59:58;26.24;31.63
67131;HTU21D;54051;53.464;49.532;2023-05-15T03:02:24;26.96;30.66
67131;HTU21D;54051;53.464;49.532;2023-05-15T03:04:51;27.82;28.51
67131;HTU21D;54051;53.464;49.532;2023-05-15T03:07:17;27.88;28.79
67131;HTU21D;54051;53.464;49.532;2023-05-15T03:09:43;27.99;28.05
67131;HTU21D;54051;53.464;49.532;2023-05-15T03:12:09;28.10;28.32
67131;HTU21D;54051;53.464;49.532;2023-05-15T03:14:35;28.47;27.68
67131;HTU21D;54051;53.464;49.532;2023-05-15T03:17:02;28.04;28.16
67131;HTU21D;54051;53.464;49.532;2023-05-15T03:19:28;27.59;29.05
67131;HTU21D;54051;53.464;49.532;2023-05-15T03:21:54;26.80;30.46
67131;HTU21D;54051;53.464;49.532;2023-05-15T03:24:20;27.04;29.93
67131;HTU21D;54051;53.464;49.532;2023-05-15T03:26:46;26.08;31.61
67131;HTU21D;54051;53.464;49.532;2023-05-15T03:29:12;27.01;29.95
67131;HTU21D;54051;53.464;49.532;2023-05-15T03:31:39;28.26;27.20
67131;HTU21D;54051;53.464;49.532;2023-05-15T03:34:05;28.62;26.86
67131;HTU21D;54051;53.464;49.532;2023-05-15T03:36:31;29.03;26.33
67131;HTU21D;54051;53.464;49.532;2023-05-15T03:38:57;28.72;27.18
67131;HTU21D;54051;53.464;49.532;2023-05-15T03:41:23;29.05;26.58
67131;HTU21D;54051;53.464;49.532;2023-05-15T03:43:50;29.11;26.42
67131;HTU21D;54051;53.464;49.532;2023-05-15T03:46:16;28.95;26.18
67131;HTU21D;54051;53.464;49.532;2023-05-15T03:48:43;28.90;26.31
67131;HTU21D;54051;53.464;49.532;2023-05-15T03:51:09;28.21;27.16
67131;HTU21D;54051;53.464;49.532;2023-05-15T03:53:35;27.58;28.30
67131;HTU21D;54051;53.464;49.532;2023-05-15T03:56:01;28.25;27.32
67131;HTU21D;54051;53.464;49.532;2023-05-15T03:58:28;29.11;25.82
67131;HTU21D;54051;53.464;49.532;2023-05-15T04:00:56;30.22;24.40
67131;HTU21D;54051;53.464;49.532;2023-05-15T04:03:23;30.90;23.01
67131;HTU21D;54051;53.464;49.532;2023-05-15T04:05:49;30.97;22.38
67131;HTU21D;54051;53.464;49.532;2023-05-15T04:08:16;30.75;23.01
67131;HTU21D;54051;53.464;49.532;2023-05-15T04:10:43;31.02;22.34
67131;HTU21D;54051;53.464;49.532;2023-05-15T04:13:09;31.45;22.18
67131;HTU21D;54051;53.464;49.532;2023-05-15T04:15:35;31.44;22.46
67131;HTU21D;54051;53.464;49.532;2023-05-15T04:18:01;32.17;21.79
67131;HTU21D;54051;53.464;49.532;2023-05-15T04:20:27;32.32;21.44
67131;HTU21D;54051;53.464;49.532;2023-05-15T04:22:53;30.89;23.63
67131;HTU21D;54051;53.464;49.532;2023-05-15T04:25:19;28.47;27.54
67131;HTU21D;54051;53.464;49.532;2023-05-15T04:27:45;30.50;24.71
67131;HTU21D;54051;53.464;49.532;2023-05-15T04:30:11;32.89;20.64
67131;HTU21D;54051;53.464;49.532;2023-05-15T04:32:38;32.79;20.24
67131;HTU21D;54051;53.464;49.532;2023-05-15T04:35:04;31.82;22.14
67131;HTU21D;54051;53.464;49.532;2023-05-15T04:37:30;32.45;20.90
67131;HTU21D;54051;53.464;49.532;2023-05-15T04:39:56;33.35;19.32
67131;HTU21D;54051;53.464;49.532;2023-05-15T04:42:22;33.21;19.33
67131;HTU21D;54051;53.464;49.532;2023-05-15T04:44:48;34.08;18.22
67131;HTU21D;54051;53.464;49.532;2023-05-15T04:47:14;33.36;18.82
67131;HTU21D;54051;53.464;49.532;2023-05-15T04:49:40;30.68;23.11
67131;HTU21D;54051;53.464;49.532;2023-05-15T04:52:06;29.12;26.46
67131;HTU21D;54051;53.464;49.532;2023-05-15T04:54:32;32.12;22.69
67131;HTU21D;54051;53.464;49.532;2023-05-15T04:56:58;34.88;17.60
67131;HTU21D;54051;53.464;49.532;2023-05-15T04:59:24;35.38;17.01
67131;HTU21D;54051;53.464;49.532;2023-05-15T05:01:50;35.58;16.79
67131;HTU21D;54051;53.464;49.532;2023-05-15T05:04:16;35.90;16.27
67131;HTU21D;54051;53.464;49.532;2023-05-15T05:06:45;34.05;18.84
67131;HTU21D;54051;53.464;49.532;2023-05-15T05:09:11;33.15;20.32
67131;HTU21D;54051;53.464;49.532;2023-05-15T05:11:40;31.83;22.14
67131;HTU21D;54051;53.464;49.532;2023-05-15T05:14:17;31.84;22.48
67131;HTU21D;54051;53.464;49.532;2023-05-15T05:16:43;32.25;21.34
67131;HTU21D;54051;53.464;49.532;2023-05-15T05:19:10;28.77;27.32
67131;HTU21D;54051;53.464;49.532;2023-05-15T05:21:36;30.06;24.96
67131;HTU21D;54051;53.464;49.532;2023-05-15T05:24:02;32.14;21.08
67131;HTU21D;54051;53.464;49.532;2023-05-15T05:26:28;30.55;23.63
67131;HTU21D;54051;53.464;49.532;2023-05-15T05:28:54;29.78;23.88
67131;HTU21D;54051;53.464;49.532;2023-05-15T05:31:20;28.93;24.79
67131;HTU21D;54051;53.464;49.532;2023-05-15T05:33:46;27.75;27.07
67131;HTU21D;54051;53.464;49.532;2023-05-15T05:36:14;25.96;30.67
67131;HTU21D;54051;53.464;49.532;2023-05-15T05:38:40;27.88;27.74
67131;HTU21D;54051;53.464;49.532;2023-05-15T05:41:06;28.76;25.40
67131;HTU21D;54051;53.464;49.532;2023-05-15T05:43:31;28.65;26.17
67131;HTU21D;54051;53.464;49.532;2023-05-15T05:45:57;28.52;26.22
67131;HTU21D;54051;53.464;49.532;2023-05-15T05:48:23;29.82;23.23
67131;HTU21D;54051;53.464;49.532;2023-05-15T05:50:51;26.91;28.02
67131;HTU21D;54051;53.464;49.532;2023-05-15T05:53:17;27.42;27.84
67131;HTU21D;54051;53.464;49.532;2023-05-15T05:55:43;25.92;29.51
67131;HTU21D;54051;53.464;49.532;2023-05-15T05:58:09;24.55;33.30
67131;HTU21D;54051;53.464;49.532;2023-05-15T06:00:35;26.41;29.10
67131;HTU21D;54051;53.464;49.532;2023-05-15T06:03:01;26.31;29.55
67131;HTU21D;54051;53.464;49.532;2023-05-15T06:05:27;24.89;31.52
67131;HTU21D;54051;53.464;49.532;2023-05-15T06:07:53;23.42;35.57
67131;HTU21D;54051;53.464;49.532;2023-05-15T06:10:19;25.09;32.09
67131;HTU21D;54051;53.464;49.532;2023-05-15T06:12:46;28.58;25.22
67131;HTU21D;54051;53.464;49.532;2023-05-15T06:15:12;30.52;22.05
67131;HTU21D;54051;53.464;49.532;2023-05-15T06:17:38;33.36;18.00
67131;HTU21D;54051;53.464;49.532;2023-05-15T06:20:04;34.60;16.46
67131;HTU21D;54051;53.464;49.532;2023-05-15T06:22:32;36.37;14.62
67131;HTU21D;54051;53.464;49.532;2023-05-15T06:24:58;36.21;14.31
67131;HTU21D;54051;53.464;49.532;2023-05-15T06:27:24;36.12;14.39
67131;HTU21D;54051;53.464;49.532;2023-05-15T06:29:51;30.55;21.60
67131;HTU21D;54051;53.464;49.532;2023-05-15T06:32:16;29.31;23.81
67131;HTU21D;54051;53.464;49.532;2023-05-15T06:34:42;27.60;27.11
67131;HTU21D;54051;53.464;49.532;2023-05-15T06:37:08;30.94;21.80
67131;HTU21D;54051;53.464;49.532;2023-05-15T06:39:34;33.82;17.89
67131;HTU21D;54051;53.464;49.532;2023-05-15T06:42:01;30.79;21.52
67131;HTU21D;54051;53.464;49.532;2023-05-15T06:44:28;27.58;27.17
67131;HTU21D;54051;53.464;49.532;2023-05-15T06:46:54;26.21;29.64
67131;HTU21D;54051;53.464;49.532;2023-05-15T06:49:20;30.10;23.71
67131;HTU21D;54051;53.464;49.532;2023-05-15T06:51:46;31.52;20.84
67131;HTU21D;54051;53.464;49.532;2023-05-15T06:54:11;27.91;26.10
67131;HTU21D;54051;53.464;49.532;2023-05-15T06:56:37;24.76;32.35
67131;HTU21D;54051;53.464;49.532;2023-05-15T06:59:03;23.28;35.96
67131;HTU21D;54051;53.464;49.532;2023-05-15T07:01:29;22.35;36.94
67131;HTU21D;54051;53.464;49.532;2023-05-15T07:03:55;21.88;38.72
67131;HTU21D;54051;53.464;49.532;2023-05-15T07:06:21;21.54;39.14
67131;HTU21D;54051;53.464;49.532;2023-05-15T07:08:47;21.77;39.08
67131;HTU21D;54051;53.464;49.532;2023-05-15T07:11:13;24.17;35.02
67131;HTU21D;54051;53.464;49.532;2023-05-15T07:13:39;29.02;26.04
67131;HTU21D;54051;53.464;49.532;2023-05-15T07:16:05;30.64;22.48
67131;HTU21D;54051;53.464;49.532;2023-05-15T07:18:31;27.45;28.38
67131;HTU21D;54051;53.464;49.532;2023-05-15T07:20:57;27.81;28.68
67131;HTU21D;54051;53.464;49.532;2023-05-15T07:23:23;30.42;23.39
67131;HTU21D;54051;53.464;49.532;2023-05-15T07:25:52;31.98;20.46
67131;HTU21D;54051;53.464;49.532;2023-05-15T07:28:18;33.06;18.65
67131;HTU21D;54051;53.464;49.532;2023-05-15T07:30:44;34.36;16.64
67131;HTU21D;54051;53.464;49.532;2023-05-15T07:33:10;34.75;16.61
67131;HTU21D;54051;53.464;49.532;2023-05-15T07:35:36;35.13;16.42
67131;HTU21D;54051;53.464;49.532;2023-05-15T07:38:02;35.45;15.44
67131;HTU21D;54051;53.464;49.532;2023-05-15T07:40:28;33.58;17.69
67131;HTU21D;54051;53.464;49.532;2023-05-15T07:42:53;34.33;16.99
67131;HTU21D;54051;53.464;49.532;2023-05-15T07:45:20;31.69;19.83
67131;HTU21D;54051;53.464;49.532;2023-05-15T07:47:47;28.10;25.44
67131;HTU21D;54051;53.464;49.532;2023-05-15T07:50:13;26.22;29.32
67131;HTU21D;54051;53.464;49.532;2023-05-15T07:52:39;27.91;26.55
67131;HTU21D;54051;53.464;49.532;2023-05-15T07:55:05;29.73;23.37
67131;HTU21D;54051;53.464;49.532;2023-05-15T07:57:34;30.70;22.45
67131;HTU21D;54051;53.464;49.532;2023-05-15T08:00:00;31.63;20.08
67131;HTU21D;54051;53.464;49.532;2023-05-15T08:02:31;31.85;19.60
67131;HTU21D;54051;53.464;49.532;2023-05-15T08:04:57;31.73;19.85
67131;HTU21D;54051;53.464;49.532;2023-05-15T08:07:23;30.03;21.82
67131;HTU21D;54051;53.464;49.532;2023-05-15T08:09:49;29.02;23.75
67131;HTU21D;54051;53.464;49.532;2023-05-15T08:12:15;27.20;26.10
67131;HTU21D;54051;53.464;49.532;2023-05-15T08:14:42;26.08;29.69
67131;HTU21D;54051;53.464;49.532;2023-05-15T08:17:08;26.17;30.84
67131;HTU21D;54051;53.464;49.532;2023-05-15T08:19:34;25.56;31.22
67131;HTU21D;54051;53.464;49.532;2023-05-15T08:21:59;25.63;31.12
67131;HTU21D;54051;53.464;49.532;2023-05-15T08:24:26;25.32;31.22
67131;HTU21D;54051;53.464;49.532;2023-05-15T08:26:51;24.58;32.60
67131;HTU21D;54051;53.464;49.532;2023-05-15T08:29:19;24.64;33.14
67131;HTU21D;54051;53.464;49.532;2023-05-15T08:31:45;24.40;33.25
67131;HTU21D;54051;53.464;49.532;2023-05-15T08:34:11;23.60;34.20
67131;HTU21D;54051;53.464;49.532;2023-05-15T08:36:37;23.54;34.87
67131;HTU21D;54051;53.464;49.532;2023-05-15T08:39:03;24.06;33.73
67131;HTU21D;54051;53.464;49.532;2023-05-15T08:41:33;23.84;33.28
67131;HTU21D;54051;53.464;49.532;2023-05-15T08:44:01;23.62;33.41
67131;HTU21D;54051;53.464;49.532;2023-05-15T08:46:28;22.99;34.96
67131;HTU21D;54051;53.464;49.532;2023-05-15T08:48:54;22.71;35.47
67131;HTU21D;54051;53.464;49.532;2023-05-15T08:51:21;22.35;36.47
67131;HTU21D;54051;53.464;49.532;2023-05-15T08:53:48;21.97;37.27
67131;HTU21D;54051;53.464;49.532;2023-05-15T08:56:14;21.84;37.69
67131;HTU21D;54051;53.464;49.532;2023-05-15T08:58:40;21.61;39.21
67131;HTU21D;54051;53.464;49.532;2023-05-15T09:01:06;21.67;38.91
67131;HTU21D;54051;53.464;49.532;2023-05-15T09:03:32;21.81;38.68
67131;HTU21D;54051;53.464;49.532;2023-05-15T09:05:58;22.22;38.43
67131;HTU21D;54051;53.464;49.532;2023-05-15T09:08:24;22.19;38.38
67131;HTU21D;54051;53.464;49.532;2023-05-15T09:10:51;21.88;38.41
67131;HTU21D;54051;53.464;49.532;2023-05-15T09:13:17;21.91;38.62
67131;HTU21D;54051;53.464;49.532;2023-05-15T09:15:44;21.80;39.11
67131;HTU21D;54051;53.464;49.532;2023-05-15T09:18:10;21.77;39.65
67131;HTU21D;54051;53.464;49.532;2023-05-15T09:20:36;21.98;38.60
67131;HTU21D;54051;53.464;49.532;2023-05-15T09:23:02;22.25;38.57
67131;HTU21D;54051;53.464;49.532;2023-05-15T09:25:35;22.37;38.28
67131;HTU21D;54051;53.464;49.532;2023-05-15T09:28:02;22.01;39.08
67131;HTU21D;54051;53.464;49.532;2023-05-15T09:30:28;21.51;39.78
67131;HTU21D;54051;53.464;49.532;2023-05-15T09:32:59;21.74;39.43
67131;HTU21D;54051;53.464;49.532;2023-05-15T09:37:56;21.62;39.62
67131;HTU21D;54051;53.464;49.532;2023-05-15T09:40:22;21.47;40.66
67131;HTU21D;54051;53.464;49.532;2023-05-15T09:42:51;21.37;40.83
67131;HTU21D;54051;53.464;49.532;2023-05-15T09:45:17;21.05;40.68
67131;HTU21D;54051;53.464;49.532;2023-05-15T09:47:44;21.00;41.05
67131;HTU21D;54051;53.464;49.532;2023-05-15T09:50:10;20.96;41.20
67131;HTU21D;54051;53.464;49.532;2023-05-15T09:52:36;21.16;41.41
67131;HTU21D;54051;53.464;49.532;2023-05-15T09:55:02;20.92;41.57
67131;HTU21D;54051;53.464;49.532;2023-05-15T09:57:28;20.90;41.87
67131;HTU21D;54051;53.464;49.532;2023-05-15T09:59:54;21.03;42.00
67131;HTU21D;54051;53.464;49.532;2023-05-15T10:02:26;21.01;42.42
67131;HTU21D;54051;53.464;49.532;2023-05-15T10:04:57;21.18;42.20
67131;HTU21D;54051;53.464;49.532;2023-05-15T10:09:54;21.27;41.13
67131;HTU21D;54051;53.464;49.532;2023-05-15T10:12:29;21.21;41.83
67131;HTU21D;54051;53.464;49.532;2023-05-15T10:14:57;21.07;42.28
67131;HTU21D;54051;53.464;49.532;2023-05-15T10:17:24;21.15;41.45
67131;HTU21D;54051;53.464;49.532;2023-05-15T10:19:50;21.24;41.22
67131;HTU21D;54051;53.464;49.532;2023-05-15T10:22:22;21.53;40.71
67131;HTU21D;54051;53.464;49.532;2023-05-15T10:25:01;21.25;40.93
67131;HTU21D;54051;53.464;49.532;2023-05-15T10:27:27;21.01;41.78
67131;HTU21D;54051;53.464;49.532;2023-05-15T10:29:55;20.89;42.17
67131;HTU21D;54051;53.464;49.532;2023-05-15T10:32:21;20.89;41.65
67131;HTU21D;54051;53.464;49.532;2023-05-15T10:34:48;20.89;40.75
67131;HTU21D;54051;53.464;49.532;2023-05-15T10:37:15;20.80;41.22
67131;HTU21D;54051;53.464;49.532;2023-05-15T10:39:42;21.02;40.84
67131;HTU21D;54051;53.464;49.532;2023-05-15T10:42:09;21.20;41.10
67131;HTU21D;54051;53.464;49.532;2023-05-15T10:44:36;21.14;41.06
67131;HTU21D;54051;53.464;49.532;2023-05-15T10:47:03;20.96;41.39
67131;HTU21D;54051;53.464;49.532;2023-05-15T10:49:29;21.04;41.10
67131;HTU21D;54051;53.464;49.532;2023-05-15T10:51:55;21.30;40.62
67131;HTU21D;54051;53.464;49.532;2023-05-15T10:54:23;21.21;40.52
67131;HTU21D;54051;53.464;49.532;2023-05-15T10:56:50;21.43;40.20
67131;HTU21D;54051;53.464;49.532;2023-05-15T10:59:15;21.37;40.63
67131;HTU21D;54051;53.464;49.532;2023-05-15T11:01:41;21.43;39.32
67131;HTU21D;54051;53.464;49.532;2023-05-15T11:04:11;21.35;39.68
67131;HTU21D;54051;53.464;49.532;2023-05-15T11:06:38;21.06;41.41
67131;HTU21D;54051;53.464;49.532;2023-05-15T11:11:58;21.10;40.81
67131;HTU21D;54051;53.464;49.532;2023-05-15T11:14:25;20.96;41.13
67131;HTU21D;54051;53.464;49.532;2023-05-15T11:21:59;21.04;40.81
67131;HTU21D;54051;53.464;49.532;2023-05-15T11:24:32;20.91;41.42
67131;HTU21D;54051;53.464;49.532;2023-05-15T11:27:11;21.11;40.22
67131;HTU21D;54051;53.464;49.532;2023-05-15T11:30:01;21.10;39.96
67131;HTU21D;54051;53.464;49.532;2023-05-15T11:35:21;21.08;39.14
67131;HTU21D;54051;53.464;49.532;2023-05-15T11:37:48;20.92;39.63
67131;HTU21D;54051;53.464;49.532;2023-05-15T11:40:18;20.81;40.53
67131;HTU21D;54051;53.464;49.532;2023-05-15T11:43:02;20.79;40.14
67131;HTU21D;54051;53.464;49.532;2023-05-15T11:45:28;20.74;39.95
67131;HTU21D;54051;53.464;49.532;2023-05-15T11:47:55;20.73;40.12
67131;HTU21D;54051;53.464;49.532;2023-05-15T11:50:22;20.61;40.71
67131;HTU21D;54051;53.464;49.532;2023-05-15T11:52:48;20.59;40.94
67131;HTU21D;54051;53.464;49.532;2023-05-15T11:55:14;20.54;40.09
67131;HTU21D;54051;53.464;49.532;2023-05-15T11:57:40;20.43;41.60
67131;HTU21D;54051;53.464;49.532;2023-05-15T12:00:06;20.43;41.74
67131;HTU21D;54051;53.464;49.532;2023-05-15T12:02:34;20.46;42.04
67131;HTU21D;54051;53.464;49.532;2023-05-15T12:05:00;20.62;41.33
67131;HTU21D;54051;53.464;49.532;2023-05-15T12:07:25;20.59;40.01
67131;HTU21D;54051;53.464;49.532;2023-05-15T12:09:51;20.63;40.33
67131;HTU21D;54051;53.464;49.532;2023-05-15T12:12:17;20.48;39.77
67131;HTU21D;54051;53.464;49.532;2023-05-15T12:14:45;20.30;40.29
67131;HTU21D;54051;53.464;49.532;2023-05-15T12:17:11;20.34;40.96
67131;HTU21D;54051;53.464;49.532;2023-05-15T12:19:37;20.16;41.45
67131;HTU21D;54051;53.464;49.532;2023-05-15T12:22:03;20.12;41.68
67131;HTU21D;54051;53.464;49.532;2023-05-15T12:24:36;20.10;41.13
67131;HTU21D;54051;53.464;49.532;2023-05-15T12:27:04;20.10;41.78
67131;HTU21D;54051;53.464;49.532;2023-05-15T12:29:30;20.09;42.07
67131;HTU21D;54051;53.464;49.532;2023-05-15T12:31:56;20.15;39.90
67131;HTU21D;54051;53.464;49.532;2023-05-15T12:34:22;20.04;41.89
67131;HTU21D;54051;53.464;49.532;2023-05-15T12:36:49;20.07;42.34
67131;HTU21D;54051;53.464;49.532;2023-05-15T12:39:15;20.15;41.97
67131;HTU21D;54051;53.464;49.532;2023-05-15T12:41:40;20.20;41.43
67131;HTU21D;54051;53.464;49.532;2023-05-15T12:44:14;20.15;41.42
67131;HTU21D;54051;53.464;49.532;2023-05-15T12:46:40;20.15;39.68
67131;HTU21D;54051;53.464;49.532;2023-05-15T12:49:07;20.05;39.41
67131;HTU21D;54051;53.464;49.532;2023-05-15T12:51:32;19.99;39.83
67131;HTU21D;54051;53.464;49.532;2023-05-15T12:53:58;19.91;39.82
67131;HTU21D;54051;53.464;49.532;2023-05-15T12:56:24;19.83;39.26
67131;HTU21D;54051;53.464;49.532;2023-05-15T12:58:50;19.85;39.52
67131;HTU21D;54051;53.464;49.532;2023-05-15T13:01:18;19.90;40.55
67131;HTU21D;54051;53.464;49.532;2023-05-15T13:03:46;19.90;41.82
67131;HTU21D;54051;53.464;49.532;2023-05-15T13:06:11;19.95;41.63
67131;HTU21D;54051;53.464;49.532;2023-05-15T13:08:40;19.90;40.39
67131;HTU21D;54051;53.464;49.532;2023-05-15T13:11:09;19.96;40.06
67131;HTU21D;54051;53.464;49.532;2023-05-15T13:13:42;19.99;39.39
67131;HTU21D;54051;53.464;49.532;2023-05-15T13:16:18;19.98;39.46
67131;HTU21D;54051;53.464;49.532;2023-05-15T13:18:44;19.92;41.07
67131;HTU21D;54051;53.464;49.532;2023-05-15T13:21:10;19.89;40.76
67131;HTU21D;54051;53.464;49.532;2023-05-15T13:23:36;19.74;40.83
67131;HTU21D;54051;53.464;49.532;2023-05-15T13:26:07;19.56;39.76
67131;HTU21D;54051;53.464;49.532;2023-05-15T13:28:33;19.72;39.95
67131;HTU21D;54051;53.464;49.532;2023-05-15T13:30:59;19.83;41.04
67131;HTU21D;54051;53.464;49.532;2023-05-15T13:33:25;19.90;40.98
67131;HTU21D;54051;53.464;49.532;2023-05-15T13:35:52;19.95;40.34
67131;HTU21D;54051;53.464;49.532;2023-05-15T13:38:18;19.94;40.71
67131;HTU21D;54051;53.464;49.532;2023-05-15T13:40:46;19.95;40.86
67131;HTU21D;54051;53.464;49.532;2023-05-15T13:43:12;20.04;40.26
67131;HTU21D;54051;53.464;49.532;2023-05-15T13:45:37;20.05;41.30
67131;HTU21D;54051;53.464;49.532;2023-05-15T13:48:03;19.96;41.81
67131;HTU21D;54051;53.464;49.532;2023-05-15T13:50:29;19.96;41.71
67131;HTU21D;54051;53.464;49.532;2023-05-15T13:52:55;19.99;41.35
67131;HTU21D;54051;53.464;49.532;2023-05-15T13:55:21;19.87;40.78
67131;HTU21D;54051;53.464;49.532;2023-05-15T13:57:47;19.76;40.01
67131;HTU21D;54051;53.464;49.532;2023-05-15T14:00:13;19.69;40.60
67131;HTU21D;54051;53.464;49.532;2023-05-15T14:02:40;19.45;41.81
67131;HTU21D;54051;53.464;49.532;2023-05-15T14:16:17;19.50;42.44
67131;HTU21D;54051;53.464;49.532;2023-05-15T14:18:50;19.53;42.01
67131;HTU21D;54051;53.464;49.532;2023-05-15T14:27:06;19.50;41.86
67131;HTU21D;54051;53.464;49.532;2023-05-15T14:29:37;19.43;41.39
67131;HTU21D;54051;53.464;49.532;2023-05-15T14:32:09;19.46;40.75
67131;HTU21D;54051;53.464;49.532;2023-05-15T14:34:40;19.43;40.92
67131;HTU21D;54051;53.464;49.532;2023-05-15T14:37:11;19.41;42.06
67131;HTU21D;54051;53.464;49.532;2023-05-15T14:39:42;19.33;42.42
67131;HTU21D;54051;53.464;49.532;2023-05-15T14:42:14;19.25;44.22
67131;HTU21D;54051;53.464;49.532;2023-05-15T14:44:47;19.21;44.43
67131;HTU21D;54051;53.464;49.532;2023-05-15T14:47:18;19.12;44.77
67131;HTU21D;54051;53.464;49.532;2023-05-15T14:49:50;19.06;44.35
67131;HTU21D;54051;53.464;49.532;2023-05-15T14:52:21;18.99;44.48
67131;HTU21D;54051;53.464;49.532;2023-05-15T14:54:55;18.91;42.99
67131;HTU21D;54051;53.464;49.532;2023-05-15T14:57:26;18.81;43.42
67131;HTU21D;54051;53.464;49.532;2023-05-15T14:59:57;18.81;43.72
67131;HTU21D;54051;53.464;49.532;2023-05-15T15:02:28;18.77;43.83
67131;HTU21D;54051;53.464;49.532;2023-05-15T15:05:00;18.73;44.18
67131;HTU21D;54051;53.464;49.532;2023-05-15T15:07:33;18.71;44.38
67131;HTU21D;54051;53.464;49.532;2023-05-15T15:10:25;18.69;44.54
67131;HTU21D;54051;53.464;49.532;2023-05-15T15:12:57;18.66;44.54
67131;HTU21D;54051;53.464;49.532;2023-05-15T15:15:28;18.63;45.03
67131;HTU21D;54051;53.464;49.532;2023-05-15T15:18:00;18.65;45.00
67131;HTU21D;54051;53.464;49.532;2023-05-15T15:20:33;18.59;44.19
67131;HTU21D;54051;53.464;49.532;2023-05-15T15:23:04;18.61;44.01
67131;HTU21D;54051;53.464;49.532;2023-05-15T15:25:35;18.61;44.40
67131;HTU21D;54051;53.464;49.532;2023-05-15T15:28:07;18.55;45.49
67131;HTU21D;54051;53.464;49.532;2023-05-15T15:30:40;18.47;46.23
67131;HTU21D;54051;53.464;49.532;2023-05-15T15:33:11;18.49;46.20
67131;HTU21D;54051;53.464;49.532;2023-05-15T15:35:42;18.50;46.31
67131;HTU21D;54051;53.464;49.532;2023-05-15T15:38:16;18.49;46.33
67131;HTU21D;54051;53.464;49.532;2023-05-15T15:40:47;18.40;46.57
67131;HTU21D;54051;53.464;49.532;2023-05-15T15:43:19;18.36;46.22
67131;HTU21D;54051;53.464;49.532;2023-05-15T15:45:53;18.27;46.66
67131;HTU21D;54051;53.464;49.532;2023-05-15T15:48:24;18.24;47.05
67131;HTU21D;54051;53.464;49.532;2023-05-15T15:50:56;18.19;46.96
67131;HTU21D;54051;53.464;49.532;2023-05-15T15:53:27;18.13;47.06